»·PEaware :: N1004E KSNA-KAVX

N1004E :: KSNA-KAVX

FLIGHT INFORMATION

Flight Status: Arrived
Operator: Privately registered:
United States
More flights under this callsign
Pilot: Lance W. (24701)
Aircraft: CESSNA T210 TURBO CENTURION
(T210)
More flights by this aircraft type
Origin: KSNA John Wayne-Orange Co
United States
Destination: KAVX Catalina
United States
More flights between these airports :: More routes between these airports
Route: SLI V21 SXC
File this flight plan on PilotEdge
Remarks:
Altitude:
(Current/Filed)
4,000ft
Speed:
(Current/Filed)
150kts
Departed: 01-Dec-19 10:22 PM
Arrived: 01-Dec-19 10:51 PM
Distance/Time
Traveled:
32nm/0:28
Distance/Time
To Go:
Arrived

Flight Plot

Page will automatically refresh every two minutes.


Map Options




Map Legend


Flown Route
Filed Route
Departure Airport
Arrival Airport
Navaid (VOR, NDB)
Fix

Horizontal Profiles

Position Reports

Time Latitude Longitude Heading Altitude Ground
Speed
01-Dec-19 22:02 33.677335 -117.871137 208 60ft 0kts
01-Dec-19 22:03 33.677335 -117.871137 208 60ft 0kts
01-Dec-19 22:04 33.677335 -117.871137 208 60ft 0kts
01-Dec-19 22:05 33.677335 -117.871137 208 60ft 0kts
01-Dec-19 22:06 33.677335 -117.871137 208 60ft 0kts
01-Dec-19 22:07 33.677335 -117.871137 208 60ft 0kts
01-Dec-19 22:08 33.677335 -117.871137 208 60ft 0kts
01-Dec-19 22:09 33.677335 -117.871137 208 60ft 0kts
01-Dec-19 22:10 33.676398 -117.871684 202 60ft 4kts
01-Dec-19 22:11 33.675600 -117.870930 125 60ft 7kts
01-Dec-19 22:12 33.678348 -117.868990 53 60ft 13kts
01-Dec-19 22:13 33.679321 -117.867981 7 60ft 0kts
01-Dec-19 22:14 33.679472 -117.867982 0 60ft 7kts
01-Dec-19 22:15 33.681166 -117.866850 72 60ft 0kts
01-Dec-19 22:16 33.681166 -117.866850 72 60ft 0kts
01-Dec-19 22:17 33.681166 -117.866850 72 60ft 0kts
01-Dec-19 22:18 33.681165 -117.866850 72 60ft 0kts
01-Dec-19 22:19 33.681166 -117.866850 72 60ft 0kts
01-Dec-19 22:20 33.680058 -117.865998 202 60ft 29kts
01-Dec-19 22:21 33.661096 -117.878083 206 1168ft 99kts
01-Dec-19 22:22 33.637794 -117.902397 222 2320ft 142kts
01-Dec-19 22:23 33.614800 -117.927760 222 3456ft 108kts
01-Dec-19 22:24 33.595408 -117.956952 234 4009ft 127kts
01-Dec-19 22:25 33.574578 -117.997117 245 4001ft 151kts
01-Dec-19 22:26 33.554080 -118.041651 236 3999ft 153kts
01-Dec-19 22:27 33.530811 -118.084124 240 3999ft 152kts
01-Dec-19 22:28 33.510367 -118.128608 241 3999ft 152kts
01-Dec-19 22:29 33.489856 -118.173001 241 3999ft 152kts
01-Dec-19 22:30 33.469426 -118.217192 240 3999ft 152kts
01-Dec-19 22:31 33.448825 -118.261613 240 3999ft 152kts
01-Dec-19 22:32 33.428269 -118.305786 240 3999ft 152kts
01-Dec-19 22:33 33.407669 -118.350027 240 4000ft 152kts
01-Dec-19 22:34 33.387064 -118.394190 241 3999ft 152kts
01-Dec-19 22:35 33.386709 -118.431567 351 3992ft 114kts
01-Dec-19 22:36 33.412075 -118.415281 23 3994ft 103kts
01-Dec-19 22:37 33.439802 -118.413256 1 3998ft 98kts
01-Dec-19 22:38 33.464777 -118.419364 320 3999ft 93kts
01-Dec-19 22:39 33.485897 -118.433444 27 3999ft 90kts
01-Dec-19 22:40 33.481001 -118.409900 136 3999ft 88kts
01-Dec-19 22:42 33.457543 -118.408858 186 3999ft 86kts
01-Dec-19 22:43 33.433871 -118.412051 186 3999ft 85kts
01-Dec-19 22:44 33.406306 -118.427303 249 2708ft 155kts
01-Dec-19 22:45 33.403155 -118.470171 265 2672ft 117kts
01-Dec-19 22:46 33.380682 -118.477138 111 2679ft 102kts
01-Dec-19 22:47 33.396338 -118.457861 332 2680ft 95kts
01-Dec-19 22:48 33.391065 -118.480530 178 2680ft 90kts
01-Dec-19 22:49 33.388916 -118.457741 56 2562ft 100kts
01-Dec-19 22:50 33.399126 -118.425585 67 1915ft 81kts
01-Dec-19 22:51 33.407055 -118.412288 63 1508ft 0kts
01-Dec-19 22:52 33.406876 -118.411876 248 1504ft 0kts
01-Dec-19 22:53 33.406876 -118.411876 248 1504ft 0kts

Navigation Log

Ident Type
Flight plan parsing failed, navigation log unavailable